createdAt,value
2022-09-07T00:02:12.449Z,1.30
2022-09-07T00:04:40.474Z,1.27
2022-09-07T00:07:08.526Z,1.20
2022-09-07T00:09:36.592Z,1.20
2022-09-07T00:12:06.291Z,1.40
2022-09-07T00:14:35.305Z,1.40
2022-09-07T00:17:03.344Z,1.47
2022-09-07T00:19:31.369Z,1.30
2022-09-07T00:21:59.354Z,1.60
2022-09-07T00:24:27.845Z,1.37
2022-09-07T00:26:56.211Z,1.57
2022-09-07T00:29:25.657Z,1.20
2022-09-07T00:31:53.758Z,1.70
2022-09-07T00:34:21.765Z,1.30
2022-09-07T00:36:49.729Z,1.13
2022-09-07T00:39:17.814Z,2.30
2022-09-07T00:41:45.820Z,1.97
2022-09-07T00:44:32.388Z,2.10
2022-09-07T00:47:02.098Z,2.33
2022-09-07T00:49:31.092Z,2.00
2022-09-07T00:52:00.561Z,1.80
2022-09-07T00:54:29.918Z,1.80
2022-09-07T00:56:57.887Z,1.90
2022-09-07T00:59:28.401Z,1.63
2022-09-07T01:01:56.568Z,1.63
2022-09-07T01:04:26.536Z,1.60
2022-09-07T01:06:55.358Z,1.57
2022-09-07T01:09:24.279Z,1.47
2022-09-07T01:11:52.783Z,1.40
2022-09-07T01:14:22.492Z,2.03
2022-09-07T01:16:55.807Z,1.57
2022-09-07T01:19:40.160Z,1.70
2022-09-07T01:22:18.460Z,1.53
2022-09-07T01:24:52.899Z,1.90
2022-09-07T01:27:53.908Z,2.63
2022-09-07T01:30:24.453Z,1.50
2022-09-07T01:33:00.368Z,1.80
2022-09-07T01:35:33.112Z,1.83
2022-09-07T01:38:04.864Z,1.57
2022-09-07T01:40:36.440Z,1.87
2022-09-07T01:43:05.842Z,2.43
2022-09-07T01:45:37.155Z,2.77
2022-09-07T01:48:07.441Z,2.80
2022-09-07T01:50:40.177Z,3.20
2022-09-07T01:53:10.497Z,2.70
2022-09-07T01:55:41.446Z,2.93
2022-09-07T01:58:11.286Z,2.77
2022-09-07T02:00:43.317Z,2.63
2022-09-07T02:03:14.533Z,2.10
2022-09-07T02:05:47.111Z,2.10
2022-09-07T02:08:17.354Z,2.60
2022-09-07T02:10:48.479Z,2.20
2022-09-07T02:13:18.100Z,2.17
2022-09-07T02:15:50.267Z,1.80
2022-09-07T02:18:18.706Z,1.60
2022-09-07T02:20:48.961Z,1.90
2022-09-07T02:23:21.636Z,1.60
2022-09-07T02:25:52.548Z,2.10
2022-09-07T02:28:23.750Z,2.10
2022-09-07T02:30:53.279Z,1.93
2022-09-07T02:33:21.393Z,1.70
2022-09-07T02:35:49.483Z,1.50
2022-09-07T02:38:17.499Z,1.60
2022-09-07T02:40:45.716Z,1.40
2022-09-07T02:43:13.786Z,1.57
2022-09-07T02:45:48.295Z,1.40
2022-09-07T02:48:24.268Z,1.60
2022-09-07T02:50:56.665Z,1.20
2022-09-07T02:53:37.288Z,1.40
2022-09-07T02:56:11.209Z,1.20
2022-09-07T02:58:45.439Z,1.17
2022-09-07T03:01:19.456Z,1.50
2022-09-07T03:03:51.566Z,1.37
2022-09-07T03:06:24.565Z,1.60
2022-09-07T03:08:54.330Z,1.60
2022-09-07T03:11:22.582Z,1.53
2022-09-07T03:13:50.585Z,1.37
2022-09-07T03:16:18.665Z,1.40
2022-09-07T03:18:46.781Z,1.60
2022-09-07T03:21:16.192Z,1.70
2022-09-07T03:23:45.432Z,1.80
2022-09-07T03:26:24.432Z,1.80
2022-09-07T03:28:52.482Z,2.20
2022-09-07T03:31:20.997Z,1.73
2022-09-07T03:33:49.085Z,1.97
2022-09-07T03:36:18.516Z,1.80
2022-09-07T03:38:46.807Z,2.23
2022-09-07T03:41:14.783Z,2.03
2022-09-07T03:43:42.782Z,1.80
2022-09-07T03:46:11.562Z,2.00
2022-09-07T03:48:40.088Z,2.00
2022-09-07T03:51:09.305Z,1.83
2022-09-07T03:53:39.471Z,2.00
2022-09-07T03:56:08.712Z,1.83
2022-09-07T03:58:39.782Z,1.87
2022-09-07T04:01:11.405Z,1.60
2022-09-07T04:03:41.872Z,2.00
2022-09-07T04:06:10.437Z,1.63
2022-09-07T04:08:40.699Z,1.90
2022-09-07T04:11:10.046Z,1.90
2022-09-07T04:13:38.642Z,1.57
2022-09-07T04:16:18.414Z,1.90
2022-09-07T04:18:47.324Z,2.30
2022-09-07T04:21:15.509Z,2.10
2022-09-07T04:23:45.817Z,2.30
2022-09-07T04:26:21.331Z,2.30
2022-09-07T04:28:52.714Z,2.00
2022-09-07T04:31:21.223Z,1.80
2022-09-07T04:33:50.054Z,1.90
2022-09-07T04:36:18.920Z,2.00
2022-09-07T04:38:48.407Z,1.77
2022-09-07T04:41:18.168Z,2.23
2022-09-07T04:43:47.311Z,1.70
2022-09-07T04:46:19.644Z,2.00
2022-09-07T04:48:49.072Z,2.00
2022-09-07T04:51:17.822Z,2.20
2022-09-07T04:53:48.820Z,2.20
2022-09-07T04:56:18.653Z,1.87
2022-09-07T04:58:46.986Z,2.00
2022-09-07T05:01:15.572Z,1.90
2022-09-07T05:03:43.861Z,2.07
2022-09-07T05:06:11.993Z,2.00
2022-09-07T05:08:41.729Z,2.00
2022-09-07T05:11:10.027Z,2.20
2022-09-07T05:13:39.526Z,2.20
2022-09-07T05:16:09.455Z,2.33
2022-09-07T05:18:37.523Z,2.20
2022-09-07T05:21:09.096Z,3.10
2022-09-07T05:23:37.205Z,2.40
2022-09-07T05:26:05.297Z,4.60
2022-09-07T05:28:33.648Z,2.37
2022-09-07T05:31:22.228Z,2.63
2022-09-07T05:36:39.192Z,2.17
2022-09-07T05:39:07.712Z,2.67
2022-09-07T05:41:35.837Z,2.40
2022-09-07T05:46:54.210Z,2.93
2022-09-07T05:49:22.177Z,2.90
2022-09-07T05:51:50.180Z,2.67
2022-09-07T05:54:18.197Z,2.73
2022-09-07T05:56:46.204Z,2.63
2022-09-07T05:59:14.188Z,2.57
2022-09-07T06:01:42.377Z,3.17
2022-09-07T06:04:12.064Z,2.87
2022-09-07T06:06:40.201Z,3.33
2022-09-07T06:09:09.427Z,3.17
2022-09-07T06:11:37.998Z,3.00
2022-09-07T06:14:06.072Z,3.60
2022-09-07T06:16:35.171Z,3.47
2022-09-07T06:19:06.237Z,3.17
2022-09-07T06:21:38.160Z,3.43
2022-09-07T06:24:11.343Z,3.60
2022-09-07T06:26:45.596Z,4.20
2022-09-07T06:29:13.872Z,3.67
2022-09-07T06:34:30.195Z,3.63
2022-09-07T06:37:00.079Z,3.40
2022-09-07T06:39:30.793Z,3.00
2022-09-07T06:41:59.083Z,3.03
2022-09-07T06:44:27.280Z,3.10
2022-09-07T06:49:30.452Z,4.53
2022-09-07T06:51:59.999Z,5.70
2022-09-07T06:57:19.382Z,3.90
2022-09-07T06:59:47.553Z,3.50
2022-09-07T07:02:15.834Z,4.20
2022-09-07T07:04:43.874Z,3.50
2022-09-07T07:07:15.556Z,4.13
2022-09-07T07:09:43.750Z,2.67
2022-09-07T07:14:47.866Z,3.00
2022-09-07T07:17:15.875Z,4.27
2022-09-07T07:19:43.886Z,3.77
2022-09-07T07:25:01.290Z,2.87
2022-09-07T07:27:31.780Z,2.70
2022-09-07T07:29:59.978Z,2.50
2022-09-07T07:32:27.963Z,2.33
2022-09-07T07:34:56.076Z,2.37
2022-09-07T07:37:28.163Z,2.33
2022-09-07T07:42:44.331Z,2.23
2022-09-07T07:48:00.982Z,2.73
2022-09-07T07:50:31.024Z,2.27
2022-09-07T07:55:50.306Z,2.77
2022-09-07T07:58:18.623Z,2.43
2022-09-07T08:00:55.823Z,2.53
2022-09-07T08:03:25.070Z,2.60
2022-09-07T08:05:53.369Z,2.43
2022-09-07T08:08:24.329Z,2.47
2022-09-07T08:10:54.990Z,2.60
2022-09-07T08:13:23.010Z,3.10
2022-09-07T08:15:51.257Z,3.10
2022-09-07T08:18:19.200Z,2.80
2022-09-07T08:20:47.291Z,2.60
2022-09-07T08:23:15.752Z,2.73
2022-09-07T08:25:52.232Z,2.33
2022-09-07T08:28:20.426Z,3.13
2022-09-07T08:30:48.427Z,2.60
2022-09-07T08:33:16.501Z,2.53
2022-09-07T08:35:44.700Z,2.90
2022-09-07T08:38:12.650Z,2.93
2022-09-07T08:40:40.658Z,2.73
2022-09-07T08:43:15.205Z,2.73
2022-09-07T08:45:45.066Z,2.73
2022-09-07T08:48:15.468Z,2.43
2022-09-07T08:50:47.496Z,3.17
2022-09-07T08:53:16.791Z,2.87
2022-09-07T08:55:48.480Z,4.13
2022-09-07T08:58:45.146Z,3.13
2022-09-07T09:04:15.993Z,3.07
2022-09-07T09:06:48.805Z,2.90
2022-09-07T09:09:22.146Z,2.60
2022-09-07T09:11:54.278Z,3.23
2022-09-07T09:16:59.830Z,2.53
2022-09-07T09:19:45.594Z,2.87
2022-09-07T09:22:16.285Z,2.93
2022-09-07T09:24:46.629Z,2.33
2022-09-07T09:27:15.211Z,2.53
2022-09-07T09:29:44.906Z,2.80
2022-09-07T09:32:34.382Z,2.33
2022-09-07T09:35:03.289Z,2.17
2022-09-07T09:37:35.588Z,3.03
2022-09-07T09:40:04.165Z,2.30
2022-09-07T09:42:34.502Z,2.30
2022-09-07T09:45:14.546Z,2.53
2022-09-07T09:47:42.595Z,2.60
2022-09-07T09:53:07.346Z,2.40
2022-09-07T09:55:37.164Z,2.70
2022-09-07T10:06:21.845Z,3.03
2022-09-07T10:08:56.293Z,2.47
2022-09-07T10:14:30.025Z,2.00
2022-09-07T10:16:59.732Z,2.43
2022-09-07T10:19:37.190Z,2.43
2022-09-07T10:22:06.601Z,2.20
2022-09-07T10:24:38.360Z,2.23
2022-09-07T10:27:20.500Z,2.37
2022-09-07T10:29:48.483Z,2.10
2022-09-07T10:32:24.588Z,2.37
2022-09-07T10:34:58.594Z,2.30
2022-09-07T10:37:34.089Z,2.17
2022-09-07T10:40:06.590Z,2.10
2022-09-07T10:42:35.801Z,2.20
2022-09-07T10:45:15.670Z,2.67
2022-09-07T10:47:49.512Z,2.10
2022-09-07T10:50:24.467Z,2.20
2022-09-07T10:52:57.551Z,2.60
2022-09-07T10:55:30.242Z,2.60
2022-09-07T10:58:04.407Z,1.80
2022-09-07T11:00:35.590Z,1.97
2022-09-07T11:03:30.881Z,2.30
2022-09-07T11:06:06.967Z,2.10
2022-09-07T11:14:18.703Z,2.90
2022-09-07T11:16:51.021Z,2.20
2022-09-07T11:19:37.877Z,2.33
2022-09-07T11:22:11.896Z,2.30
2022-09-07T11:24:42.877Z,2.30
2022-09-07T11:27:14.137Z,2.40
2022-09-07T11:29:46.243Z,2.70
2022-09-07T11:32:18.178Z,3.03
2022-09-07T11:34:52.164Z,2.30
2022-09-07T11:37:22.145Z,2.10
2022-09-07T11:39:52.767Z,2.03
2022-09-07T11:45:16.626Z,2.23
2022-09-07T11:47:47.650Z,2.20
2022-09-07T11:50:18.015Z,2.83
2022-09-07T11:52:53.533Z,2.10
2022-09-07T11:55:24.075Z,2.20
2022-09-07T11:57:59.628Z,2.60
2022-09-07T12:00:32.104Z,2.40
2022-09-07T12:03:19.761Z,2.80
2022-09-07T12:05:57.909Z,2.70
2022-09-07T12:08:32.485Z,2.40
2022-09-07T12:11:23.058Z,2.30
2022-09-07T12:14:06.813Z,2.83
2022-09-07T12:16:40.310Z,2.23
2022-09-07T12:19:18.617Z,2.65
2022-09-07T12:21:50.465Z,2.33
2022-09-07T12:24:33.729Z,2.40
2022-09-07T12:27:01.973Z,2.67
2022-09-07T12:29:31.369Z,2.13
2022-09-07T12:32:52.597Z,2.43
2022-09-07T12:34:52.073Z,2.60
2022-09-07T12:37:38.228Z,2.27
2022-09-07T12:40:24.471Z,2.63
2022-09-07T12:43:12.383Z,1.90
2022-09-07T12:45:51.437Z,2.70
2022-09-07T12:48:27.815Z,2.20
2022-09-07T12:50:59.084Z,2.40
2022-09-07T12:53:32.337Z,2.33
2022-09-07T12:56:18.860Z,2.10
2022-09-07T12:58:52.687Z,2.25
2022-09-07T13:01:25.892Z,2.87
2022-09-07T13:04:08.615Z,2.40
2022-09-07T13:07:02.054Z,3.03
2022-09-07T13:09:36.125Z,2.20
2022-09-07T13:12:07.298Z,2.50
2022-09-07T13:14:38.315Z,2.60
2022-09-07T13:17:21.054Z,2.40
2022-09-07T13:20:18.372Z,2.40
2022-09-07T13:22:55.658Z,2.17
2022-09-07T13:25:42.148Z,2.40
2022-09-07T13:28:17.378Z,2.10
2022-09-07T13:30:55.829Z,2.20
2022-09-07T13:33:57.336Z,2.40
2022-09-07T13:36:31.217Z,2.10
2022-09-07T13:38:59.611Z,2.30
2022-09-07T13:41:30.179Z,2.50
2022-09-07T13:44:02.245Z,2.40
2022-09-07T13:46:42.171Z,2.17
2022-09-07T13:49:17.743Z,2.63
2022-09-07T13:51:48.821Z,2.00
2022-09-07T13:54:20.341Z,2.80
2022-09-07T13:56:53.155Z,2.40
2022-09-07T13:59:23.600Z,3.10
2022-09-07T14:01:51.854Z,2.37
2022-09-07T14:04:22.792Z,2.47
2022-09-07T14:06:51.009Z,2.30
2022-09-07T14:09:19.825Z,2.77
2022-09-07T14:11:48.474Z,2.60
2022-09-07T14:14:17.751Z,2.57
2022-09-07T14:16:48.210Z,2.28
2022-09-07T14:19:20.405Z,2.25
2022-09-07T14:21:58.652Z,2.60
2022-09-07T14:24:36.593Z,2.80
2022-09-07T14:27:05.584Z,2.53
2022-09-07T14:29:34.270Z,2.37
2022-09-07T14:32:04.737Z,3.47
2022-09-07T14:34:34.863Z,2.30
2022-09-07T14:37:05.246Z,2.40
2022-09-07T14:39:35.703Z,2.23
2022-09-07T14:42:04.133Z,2.50
2022-09-07T14:44:36.350Z,2.00
2022-09-07T14:47:11.803Z,2.97
2022-09-07T14:49:40.232Z,2.47
2022-09-07T14:52:08.214Z,2.17
2022-09-07T14:54:36.368Z,2.50
2022-09-07T14:57:07.111Z,2.53
2022-09-07T14:59:37.954Z,2.60
2022-09-07T15:02:35.524Z,2.63
2022-09-07T15:05:23.693Z,2.87
2022-09-07T15:07:52.743Z,2.10
2022-09-07T15:10:29.451Z,2.35
2022-09-07T15:12:58.197Z,1.88
2022-09-07T15:15:27.232Z,2.10
2022-09-07T15:18:01.904Z,1.87
2022-09-07T15:20:35.597Z,2.00
2022-09-07T15:23:05.046Z,2.17
2022-09-07T15:25:33.326Z,1.60
2022-09-07T15:28:01.460Z,1.97
2022-09-07T15:30:29.521Z,2.03
2022-09-07T15:32:59.973Z,2.00
2022-09-07T15:35:28.093Z,2.13
2022-09-07T15:38:05.268Z,2.10
2022-09-07T15:40:47.493Z,2.13
2022-09-07T15:43:28.587Z,2.33
2022-09-07T15:45:56.683Z,2.23
2022-09-07T15:48:26.626Z,2.30
2022-09-07T15:51:01.777Z,2.53
2022-09-07T15:56:20.305Z,2.30
2022-09-07T15:58:52.412Z,2.57
2022-09-07T16:04:13.750Z,2.10
2022-09-07T16:06:41.894Z,2.60
2022-09-07T16:09:09.870Z,2.50
2022-09-07T16:11:37.779Z,3.00
2022-09-07T16:14:05.708Z,3.40
2022-09-07T16:19:23.475Z,5.33
2022-09-07T16:21:51.394Z,3.07
2022-09-07T16:24:19.490Z,2.83
2022-09-07T16:26:47.677Z,2.40
2022-09-07T16:29:15.564Z,4.07
2022-09-07T16:34:33.056Z,3.00
2022-09-07T16:37:00.977Z,3.57
2022-09-07T16:39:29.677Z,3.83
2022-09-07T16:41:57.714Z,2.80
2022-09-07T16:44:25.618Z,3.10
2022-09-07T16:46:53.508Z,3.37
2022-09-07T16:49:21.647Z,3.27
2022-09-07T16:51:50.995Z,3.30
2022-09-07T16:54:19.636Z,3.97
2022-09-07T16:56:49.166Z,3.43
2022-09-07T16:59:20.464Z,3.10
2022-09-07T17:01:48.739Z,2.97
2022-09-07T17:04:17.344Z,2.60
2022-09-07T17:06:45.624Z,2.60
2022-09-07T17:09:15.169Z,2.30
2022-09-07T17:11:43.679Z,2.17
2022-09-07T17:14:11.680Z,2.70
2022-09-07T17:16:40.932Z,2.40
2022-09-07T17:22:00.862Z,2.20
2022-09-07T17:24:32.206Z,1.87
2022-09-07T17:27:00.473Z,1.93
2022-09-07T17:29:30.599Z,2.27
2022-09-07T17:34:47.410Z,1.47
2022-09-07T17:37:15.465Z,1.70
2022-09-07T17:39:44.940Z,1.70
2022-09-07T17:42:13.433Z,1.70
2022-09-07T17:44:41.452Z,2.37
2022-09-07T17:47:09.478Z,1.40
2022-09-07T17:49:37.407Z,1.90
2022-09-07T17:52:05.437Z,1.43
2022-09-07T17:54:34.164Z,2.53
2022-09-07T17:57:04.254Z,2.23
2022-09-07T18:02:20.523Z,1.80
2022-09-07T18:04:50.127Z,2.10
2022-09-07T18:07:18.382Z,2.17
2022-09-07T18:09:46.433Z,2.30
2022-09-07T18:12:15.909Z,2.23
2022-09-07T18:14:44.839Z,2.20
2022-09-07T18:17:12.873Z,2.27
2022-09-07T18:19:41.046Z,2.60
2022-09-07T18:22:09.480Z,2.40
2022-09-07T18:24:37.481Z,3.13
2022-09-07T18:27:05.584Z,2.23
2022-09-07T18:29:34.966Z,2.43
2022-09-07T18:32:05.723Z,3.10
2022-09-07T18:34:36.213Z,2.73
2022-09-07T18:37:04.797Z,2.63
2022-09-07T18:39:33.801Z,3.27
2022-09-07T18:42:01.956Z,2.47
2022-09-07T18:47:27.693Z,2.77
2022-09-07T18:49:56.638Z,3.67
2022-09-07T18:55:12.624Z,2.57
2022-09-07T18:57:40.926Z,2.50
2022-09-07T19:00:10.095Z,2.20
2022-09-07T19:02:39.580Z,3.07
2022-09-07T19:07:55.868Z,2.00
2022-09-07T19:10:23.946Z,1.80
2022-09-07T19:12:51.938Z,1.50
2022-09-07T19:15:20.650Z,1.70
2022-09-07T19:17:49.984Z,1.77
2022-09-07T19:20:18.018Z,2.53
2022-09-07T19:22:45.954Z,1.90
2022-09-07T19:25:13.875Z,1.97
2022-09-07T19:27:41.823Z,2.00
2022-09-07T19:30:10.484Z,3.03
2022-09-07T19:32:38.403Z,2.17
2022-09-07T19:35:08.271Z,1.60
2022-09-07T19:37:36.352Z,1.40
2022-09-07T19:40:04.561Z,1.10
2022-09-07T19:42:32.492Z,1.10
2022-09-07T19:45:01.105Z,1.67
2022-09-07T19:47:29.063Z,1.47
2022-09-07T19:49:57.209Z,1.20
2022-09-07T19:52:27.137Z,1.43
2022-09-07T19:54:55.068Z,3.63
2022-09-07T19:57:22.984Z,1.27
2022-09-07T19:59:53.215Z,0.90
2022-09-07T20:02:21.173Z,1.10
2022-09-07T20:04:49.094Z,0.90
2022-09-07T20:07:17.052Z,0.90
2022-09-07T20:09:50.541Z,0.77
2022-09-07T20:12:19.228Z,1.00
2022-09-07T20:14:47.168Z,1.03
2022-09-07T20:17:15.105Z,1.10
2022-09-07T20:19:43.218Z,1.17
2022-09-07T20:22:11.132Z,1.33
2022-09-07T20:24:39.487Z,1.13
2022-09-07T20:27:08.957Z,1.17
2022-09-07T20:29:36.934Z,1.07
2022-09-07T20:32:04.883Z,1.30
2022-09-07T20:34:33.685Z,1.00
2022-09-07T20:37:02.242Z,0.80
2022-09-07T20:39:30.203Z,0.90
2022-09-07T20:41:58.189Z,1.03
2022-09-07T20:44:27.526Z,0.70
2022-09-07T20:46:55.812Z,0.80
2022-09-07T20:49:23.892Z,0.70
2022-09-07T20:51:51.861Z,0.63
2022-09-07T20:54:19.759Z,0.70
2022-09-07T20:56:48.091Z,0.70
2022-09-07T20:59:16.110Z,0.57
2022-09-07T21:01:46.711Z,0.90
2022-09-07T21:04:14.696Z,0.73
2022-09-07T21:06:42.633Z,1.00
2022-09-07T21:09:10.938Z,1.20
2022-09-07T21:11:39.953Z,1.40
2022-09-07T21:14:08.706Z,0.80
2022-09-07T21:16:37.134Z,1.27
2022-09-07T21:19:07.497Z,1.13
2022-09-07T21:21:38.829Z,1.10
2022-09-07T21:24:07.227Z,1.13
2022-09-07T21:26:35.210Z,0.90
2022-09-07T21:29:04.065Z,1.30
2022-09-07T21:31:33.523Z,1.30
2022-09-07T21:34:02.673Z,1.53
2022-09-07T21:36:32.223Z,1.50
2022-09-07T21:39:00.117Z,1.47
2022-09-07T21:41:28.058Z,1.23
2022-09-07T21:43:56.696Z,1.70
2022-09-07T21:46:25.018Z,1.50
2022-09-07T21:48:52.999Z,1.50
2022-09-07T21:51:20.985Z,5.43
2022-09-07T21:53:53.514Z,2.97
2022-09-07T21:56:21.746Z,1.60
2022-09-07T21:58:49.698Z,1.37
2022-09-07T22:01:18.489Z,1.20
2022-09-07T22:03:47.401Z,1.43
2022-09-07T22:06:15.872Z,1.60
2022-09-07T22:08:45.275Z,1.40
2022-09-07T22:11:15.570Z,1.10
2022-09-07T22:13:43.804Z,1.50
2022-09-07T22:16:12.102Z,1.33
2022-09-07T22:18:40.602Z,1.10
2022-09-07T22:21:09.395Z,1.40
2022-09-07T22:23:38.347Z,1.10
2022-09-07T22:26:06.659Z,1.13
2022-09-07T22:28:36.295Z,1.30
2022-09-07T22:31:11.282Z,1.37
2022-09-07T22:33:39.325Z,1.10
2022-09-07T22:36:14.087Z,1.37
2022-09-07T22:38:42.305Z,1.33
2022-09-07T22:41:10.791Z,1.43
2022-09-07T22:43:40.373Z,1.77
2022-09-07T22:46:08.308Z,1.40
2022-09-07T22:48:36.324Z,1.23
2022-09-07T22:51:05.049Z,1.40
2022-09-07T22:53:34.270Z,1.70
2022-09-07T22:56:06.201Z,1.70
2022-09-07T22:58:34.400Z,1.50
2022-09-07T23:01:03.805Z,1.67
2022-09-07T23:03:32.714Z,1.47
2022-09-07T23:06:01.697Z,2.33
2022-09-07T23:08:29.999Z,2.63
2022-09-07T23:11:02.671Z,2.93
2022-09-07T23:13:31.165Z,4.10
2022-09-07T23:16:06.364Z,3.60
2022-09-07T23:18:34.850Z,3.10
2022-09-07T23:21:03.248Z,2.87
2022-09-07T23:23:31.399Z,2.73
2022-09-07T23:26:01.721Z,2.53
2022-09-07T23:28:29.906Z,2.60
2022-09-07T23:30:58.132Z,2.27
2022-09-07T23:33:27.581Z,2.47
2022-09-07T23:35:58.972Z,2.70
2022-09-07T23:38:27.014Z,2.17
2022-09-07T23:40:55.209Z,2.80
2022-09-07T23:43:23.478Z,2.67
2022-09-07T23:45:51.581Z,2.10
2022-09-07T23:48:19.826Z,2.30
2022-09-07T23:50:49.485Z,2.73
2022-09-07T23:53:18.046Z,3.10
2022-09-07T23:55:46.066Z,2.53
2022-09-07T23:58:13.960Z,2.80
